Terminal Aerodrome Forecast
Issued by NWS

Home | Current Version | Previous Version | Text Only | Print | Product List | Glossary On
Versions: 1 2 3 4 5 6 7 8 9 10 11 12 13 14 15 16 17
000
FTUS42 KGSP 180500
TAFAND
TAF
KAND 180534Z 1806/1906 06006KT P6SM SCT050 OVC200
     FM180900 05006KT P6SM SCT025 BKN050
      TEMPO 1810/1814 BKN020 OVC050
     FM181400 05012KT P6SM OVC020
     FM182000 05013G19KT 5SM -SHRA OVC012
     FM190100 04014G22KT 4SM SHRA OVC008=

USA.gov is the U.S. government's official web portal to all federal, state and local government web resources and services.